This is the latest recevied weather packets stored in our database for station/object K2ATL. If no packets are shown the sender has not sent any weather packets the latest 10 day(s).
| Time | Temp. | Humidity | Pressure | Rain* | Wind** | Luminosity | Snow |
|---|---|---|---|---|---|---|---|
| 1787630737 | 19.44° C | 75% | 1104.1 hPa | 0 mm | - | 0 W/m² | - |
| 1787630433 | 20° C | 75% | 1104.1 hPa | 0 mm | - | 0 W/m² | - |
| 1787630133 | 19.44° C | 76% | 1104.2 hPa | 0 mm | - | 0 W/m² | - |
| 1787629828 | 19.44° C | 78% | 1104.3 hPa | 0 mm | - | 0 W/m² | - |
| 1787629523 | 20° C | 78% | 1104.3 hPa | 0 mm | - | 0 W/m² | - |
| 1787629220 | 22.22° C | 70% | 1104.5 hPa | 0 mm | - | 0 W/m² | - |
| 1787628920 | 22.78° C | 59% | 1104.5 hPa | 0 mm | - | 0 W/m² | - |
| 1787628616 | 22.78° C | 59% | 1104.5 hPa | 0 mm | - | 0 W/m² | - |
| 1787628311 | 22.78° C | 60% | 1104.6 hPa | 0 mm | - | 0 W/m² | - |
| 1787628006 | 22.78° C | 60% | 1104.3 hPa | 0 mm | - | 0 W/m² | - |
| 1787627701 | 22.78° C | 60% | 1104.5 hPa | 0 mm | - | 0 W/m² | - |
| 1787627396 | 22.78° C | 60% | 1104.6 hPa | 0 mm | - | 0 W/m² | - |
| 1787627092 | 22.78° C | 60% | 1104.5 hPa | 0 mm | - | 0 W/m² | - |
| 1787626788 | 22.78° C | 61% | 1104.2 hPa | 0 mm | - | 0 W/m² | - |
| 1787626483 | 22.78° C | 60% | 1104.6 hPa | 0 mm | - | 0 W/m² | - |
| 1787626183 | 22.78° C | 60% | 1104.5 hPa | 0 mm | - | 0 W/m² | - |
| 1787625877 | 22.78° C | 61% | 1104.3 hPa | 0 mm | - | 0 W/m² | - |
| 1787625574 | 22.78° C | 64% | 1104.5 hPa | 0 mm | - | 0 W/m² | - |
| 1787625269 | 22.22° C | 65% | 1104.2 hPa | 0 mm | - | 0 W/m² | - |
| 1787624966 | 20.56° C | 70% | 1104.1 hPa | 0 mm | - | 0 W/m² | - |
| 1787624665 | 21.11° C | 75% | 1104.1 hPa | 0 mm | - | 0 W/m² | - |
| 1787624361 | 22.22° C | 67% | 1103.8 hPa | 0 mm | - | 0 W/m² | - |
| 1787624057 | 22.22° C | 67% | 1103.9 hPa | 0 mm | - | 0 W/m² | - |
| 1787623757 | 22.22° C | 68% | 1104.1 hPa | 0 mm | - | 0 W/m² | - |
| 1787623456 | 22.78° C | 66% | 1103.8 hPa | 0 mm | - | 0 W/m² | - |
* Rain latest hour (hover to see other rain measurements)
** Current wind speed in m/s (hover to see current wind gust speed)